createdAt,value
2023-01-03T00:01:58.936Z,88.57
2023-01-03T00:04:26.890Z,88.75
2023-01-03T00:06:55.357Z,88.74
2023-01-03T00:09:25.729Z,88.83
2023-01-03T00:12:13.269Z,88.74
2023-01-03T00:14:42.928Z,88.55
2023-01-03T00:17:12.732Z,88.99
2023-01-03T00:19:42.183Z,88.45
2023-01-03T00:22:11.827Z,88.87
2023-01-03T00:24:41.046Z,88.79
2023-01-03T00:27:09.786Z,88.73
2023-01-03T00:29:37.974Z,88.57
2023-01-03T00:32:06.648Z,88.39
2023-01-03T00:34:34.733Z,88.54
2023-01-03T00:37:02.905Z,88.93
2023-01-03T00:39:30.980Z,89.00
2023-01-03T00:42:00.249Z,88.76
2023-01-03T00:44:28.223Z,88.44
2023-01-03T00:46:56.507Z,88.65
2023-01-03T00:49:24.698Z,89.08
2023-01-03T00:51:53.858Z,88.73
2023-01-03T00:54:22.287Z,88.92
2023-01-03T00:56:52.371Z,88.98
2023-01-03T00:59:22.537Z,88.48
2023-01-03T01:01:52.685Z,88.72
2023-01-03T01:04:22.798Z,88.97
2023-01-03T01:06:53.209Z,88.84
2023-01-03T01:09:23.895Z,88.57
2023-01-03T01:11:51.981Z,88.65
2023-01-03T01:14:23.177Z,88.43
2023-01-03T01:16:52.863Z,88.82
2023-01-03T01:19:24.112Z,88.55
2023-01-03T01:21:54.036Z,88.74
2023-01-03T01:24:22.218Z,89.15
2023-01-03T01:26:50.240Z,88.52
2023-01-03T01:29:19.455Z,88.71
2023-01-03T01:31:49.085Z,88.88
2023-01-03T01:34:17.686Z,88.58
2023-01-03T01:36:46.744Z,88.73
2023-01-03T01:39:21.280Z,88.77
2023-01-03T01:42:10.355Z,88.65
2023-01-03T01:44:53.182Z,88.80
2023-01-03T01:47:32.254Z,88.47
2023-01-03T01:50:05.027Z,88.45
2023-01-03T01:52:35.229Z,89.02
2023-01-03T01:55:06.244Z,88.91
2023-01-03T01:57:36.887Z,89.02
2023-01-03T02:00:04.964Z,88.75
2023-01-03T02:02:34.443Z,88.67
2023-01-03T02:05:08.117Z,88.66
2023-01-03T02:07:38.163Z,88.91
2023-01-03T02:10:07.422Z,88.91
2023-01-03T02:12:59.556Z,88.50
2023-01-03T02:15:46.052Z,88.54
2023-01-03T02:18:31.459Z,88.93
2023-01-03T02:21:23.741Z,88.73
2023-01-03T02:24:33.203Z,88.79
2023-01-03T02:27:07.637Z,88.75
2023-01-03T02:30:06.773Z,88.60
2023-01-03T02:32:42.396Z,88.40
2023-01-03T02:35:18.247Z,89.00
2023-01-03T02:37:56.726Z,88.56
2023-01-03T02:40:29.206Z,88.49
2023-01-03T02:43:02.932Z,88.49
2023-01-03T02:45:53.522Z,88.95
2023-01-03T02:48:33.469Z,88.99
2023-01-03T02:51:06.349Z,88.86
2023-01-03T02:53:39.852Z,88.60
2023-01-03T02:56:11.617Z,88.53
2023-01-03T02:58:41.276Z,88.75
2023-01-03T03:01:13.064Z,88.95
2023-01-03T03:03:41.877Z,88.60
2023-01-03T03:06:16.280Z,88.97
2023-01-03T03:08:46.963Z,88.43
2023-01-03T03:11:33.942Z,88.56
2023-01-03T03:14:07.442Z,88.62
2023-01-03T03:16:51.316Z,88.59
2023-01-03T03:19:44.217Z,88.63
2023-01-03T03:22:46.347Z,88.45
2023-01-03T03:25:18.653Z,88.84
2023-01-03T03:28:07.233Z,88.94
2023-01-03T03:30:39.374Z,88.87
2023-01-03T03:33:11.866Z,88.83
2023-01-03T03:35:45.356Z,88.69
2023-01-03T03:38:17.229Z,88.65
2023-01-03T03:41:14.431Z,88.92
2023-01-03T03:44:07.212Z,88.71
2023-01-03T03:46:41.249Z,88.76
2023-01-03T03:49:33.046Z,88.91
2023-01-03T03:52:03.445Z,88.38
2023-01-03T03:54:35.598Z,88.92
2023-01-03T03:57:13.224Z,88.60
2023-01-03T03:59:44.981Z,88.97
2023-01-03T04:02:19.147Z,88.95
2023-01-03T04:04:51.042Z,88.73
2023-01-03T04:07:19.079Z,88.93
2023-01-03T04:09:47.098Z,88.85
2023-01-03T04:12:15.123Z,88.67
2023-01-03T04:14:42.863Z,88.55
2023-01-03T04:17:10.661Z,88.86
2023-01-03T04:19:38.492Z,88.78
2023-01-03T04:22:07.882Z,88.54
2023-01-03T04:24:35.650Z,88.59
2023-01-03T04:27:03.462Z,88.54
2023-01-03T04:29:35.523Z,89.10
2023-01-03T04:32:07.407Z,88.41
2023-01-03T04:34:36.255Z,88.70
2023-01-03T04:37:04.117Z,88.76
2023-01-03T04:39:33.367Z,88.70
2023-01-03T04:42:01.567Z,88.95
2023-01-03T04:44:28.635Z,88.87
2023-01-03T04:46:57.564Z,88.87
2023-01-03T04:49:25.402Z,88.42
2023-01-03T04:51:53.306Z,89.02
2023-01-03T04:54:21.519Z,88.79
2023-01-03T04:56:50.636Z,88.66
2023-01-03T04:59:18.598Z,88.40
2023-01-03T05:01:52.254Z,88.73
2023-01-03T05:04:20.398Z,88.91
2023-01-03T05:06:48.212Z,88.83
2023-01-03T05:09:15.997Z,88.43
2023-01-03T05:11:44.026Z,88.53
2023-01-03T05:14:14.695Z,89.00
2023-01-03T05:16:42.935Z,88.71
2023-01-03T05:19:10.945Z,88.74
2023-01-03T05:21:56.087Z,88.78
2023-01-03T05:24:41.596Z,88.89
2023-01-03T05:27:09.516Z,88.43
2023-01-03T05:29:38.855Z,89.02
2023-01-03T05:32:06.994Z,88.62
2023-01-03T05:34:34.831Z,88.90
2023-01-03T05:37:02.591Z,88.57
2023-01-03T05:39:30.450Z,88.89
2023-01-03T05:42:00.934Z,88.54
2023-01-03T05:44:53.072Z,88.31
2023-01-03T05:47:50.073Z,89.07
2023-01-03T05:50:18.110Z,88.71
2023-01-03T05:52:45.977Z,89.07
2023-01-03T05:55:14.107Z,88.72
2023-01-03T05:57:41.885Z,88.37
2023-01-03T06:00:10.948Z,88.66
2023-01-03T06:02:39.069Z,88.82
2023-01-03T06:05:09.562Z,88.72
2023-01-03T06:07:37.398Z,88.94
2023-01-03T06:10:06.581Z,88.62
2023-01-03T06:12:34.519Z,88.62
2023-01-03T06:15:02.393Z,88.86
2023-01-03T06:17:47.660Z,88.93
2023-01-03T06:20:16.965Z,88.40
2023-01-03T06:22:44.812Z,88.75
2023-01-03T06:25:13.399Z,88.53
2023-01-03T06:27:41.149Z,88.38
2023-01-03T06:30:10.627Z,88.74
2023-01-03T06:32:38.650Z,88.62
2023-01-03T06:35:07.273Z,88.92
2023-01-03T06:37:36.476Z,88.39
2023-01-03T06:40:04.987Z,88.71
2023-01-03T06:42:46.036Z,88.36
2023-01-03T06:45:33.292Z,88.91
2023-01-03T06:48:23.480Z,88.64
2023-01-03T06:51:09.287Z,88.79
2023-01-03T06:53:40.355Z,89.01
2023-01-03T06:56:08.964Z,89.06
2023-01-03T06:58:37.651Z,88.67
2023-01-03T07:01:07.491Z,88.60
2023-01-03T07:03:35.488Z,89.03
2023-01-03T07:06:03.356Z,88.65
2023-01-03T07:08:31.085Z,88.51
2023-01-03T07:11:00.258Z,88.50
2023-01-03T07:13:45.846Z,88.71
2023-01-03T07:16:15.055Z,88.97
2023-01-03T07:18:43.304Z,88.29
2023-01-03T07:21:11.569Z,88.44
2023-01-03T07:23:40.059Z,88.98
2023-01-03T07:26:09.656Z,88.35
2023-01-03T07:28:37.449Z,88.65
2023-01-03T07:31:07.559Z,88.74
2023-01-03T07:33:37.306Z,88.55
2023-01-03T07:36:11.880Z,88.82
2023-01-03T07:38:41.319Z,88.46
2023-01-03T07:41:12.095Z,89.04
2023-01-03T07:43:41.112Z,88.63
2023-01-03T07:46:11.402Z,88.54
2023-01-03T07:48:39.836Z,88.58
2023-01-03T07:51:08.628Z,88.66
2023-01-03T07:53:37.161Z,88.52
2023-01-03T07:56:12.679Z,88.60
2023-01-03T07:58:43.882Z,88.45
2023-01-03T08:01:13.566Z,88.50
2023-01-03T08:03:42.038Z,88.97
2023-01-03T08:06:11.586Z,88.48
2023-01-03T08:08:39.553Z,88.89
2023-01-03T08:11:25.797Z,88.95
2023-01-03T08:13:54.983Z,88.69
2023-01-03T08:16:25.181Z,88.50
2023-01-03T08:18:53.129Z,88.58
2023-01-03T08:21:21.090Z,88.25
2023-01-03T08:23:49.075Z,88.60
2023-01-03T08:26:18.949Z,88.80
2023-01-03T08:28:47.241Z,88.60
2023-01-03T08:31:19.278Z,88.64
2023-01-03T08:33:50.285Z,88.55
2023-01-03T08:36:19.359Z,88.52
2023-01-03T08:38:50.239Z,88.91
2023-01-03T08:41:21.462Z,88.78
2023-01-03T08:43:50.278Z,88.71
2023-01-03T08:46:20.355Z,88.54
2023-01-03T08:48:48.983Z,88.87
2023-01-03T08:51:16.910Z,88.54
2023-01-03T08:53:44.649Z,88.72
2023-01-03T08:56:12.574Z,88.55
2023-01-03T08:58:40.605Z,88.69
2023-01-03T09:01:09.718Z,88.68
2023-01-03T09:03:39.076Z,88.25
2023-01-03T09:06:07.738Z,88.70
2023-01-03T09:08:36.221Z,88.41
2023-01-03T09:11:05.910Z,88.33
2023-01-03T09:13:33.820Z,88.61
2023-01-03T09:16:03.037Z,88.69
2023-01-03T09:18:31.001Z,88.72
2023-01-03T09:21:00.200Z,88.51
2023-01-03T09:23:28.040Z,88.84
2023-01-03T09:25:55.953Z,88.55
2023-01-03T09:28:24.370Z,88.65
2023-01-03T09:30:52.253Z,88.44
2023-01-03T09:33:20.173Z,88.47
2023-01-03T09:35:48.543Z,88.36
2023-01-03T09:38:17.650Z,88.58
2023-01-03T09:40:47.564Z,88.58
2023-01-03T09:43:24.658Z,88.68
2023-01-03T09:45:56.752Z,88.46
2023-01-03T09:48:30.745Z,88.40
2023-01-03T09:51:18.303Z,88.49
2023-01-03T09:54:05.105Z,88.59
2023-01-03T09:56:50.877Z,88.54
2023-01-03T09:59:48.230Z,88.58
2023-01-03T10:03:00.138Z,88.32
2023-01-03T10:05:41.329Z,88.48
2023-01-03T10:08:23.249Z,88.61
2023-01-03T10:11:03.613Z,88.58
2023-01-03T10:13:49.295Z,88.36
2023-01-03T10:16:25.745Z,88.53
2023-01-03T10:19:18.709Z,88.41
2023-01-03T10:21:57.178Z,88.71
2023-01-03T10:24:29.959Z,88.35
2023-01-03T10:27:08.495Z,88.17
2023-01-03T10:29:36.856Z,88.44
2023-01-03T10:32:24.558Z,88.34
2023-01-03T10:35:14.699Z,88.31
2023-01-03T10:37:43.343Z,88.55
2023-01-03T10:40:12.941Z,88.56
2023-01-03T10:42:44.845Z,88.22
2023-01-03T10:45:16.374Z,88.20
2023-01-03T10:47:44.500Z,88.46
2023-01-03T10:50:22.391Z,88.59
2023-01-03T10:52:58.207Z,88.68
2023-01-03T10:55:28.176Z,88.26
2023-01-03T10:58:02.760Z,88.23
2023-01-03T11:00:33.277Z,88.52
2023-01-03T11:03:13.239Z,88.28
2023-01-03T11:05:42.752Z,88.31
2023-01-03T11:08:18.055Z,88.43
2023-01-03T11:10:55.427Z,88.61
2023-01-03T11:13:33.618Z,88.28
2023-01-03T11:16:03.441Z,88.21
2023-01-03T11:18:33.032Z,88.40
2023-01-03T11:21:09.848Z,88.52
2023-01-03T11:23:57.950Z,88.40
2023-01-03T11:26:45.363Z,88.44
2023-01-03T11:29:47.505Z,88.18
2023-01-03T11:32:25.254Z,88.24
2023-01-03T11:35:23.494Z,88.37
2023-01-03T11:38:00.967Z,88.32
2023-01-03T11:40:35.159Z,88.10
2023-01-03T11:43:19.586Z,88.23
2023-01-03T11:46:14.581Z,88.26
2023-01-03T11:49:04.372Z,88.28
2023-01-03T11:51:37.568Z,88.47
2023-01-03T11:54:16.747Z,88.67
2023-01-03T11:56:45.910Z,88.41
2023-01-03T11:59:30.315Z,88.34
2023-01-03T12:02:43.356Z,88.15
2023-01-03T12:05:37.657Z,88.18
2023-01-03T12:08:17.721Z,88.47
2023-01-03T12:10:53.322Z,88.06
2023-01-03T12:13:33.064Z,88.44
2023-01-03T12:16:05.531Z,88.33
2023-01-03T12:18:44.746Z,88.36
2023-01-03T12:21:21.054Z,88.16
2023-01-03T12:23:56.245Z,87.93
2023-01-03T12:26:27.187Z,88.23
2023-01-03T12:29:00.861Z,88.12
2023-01-03T12:31:35.252Z,87.99
2023-01-03T12:34:18.611Z,88.04
2023-01-03T12:36:52.401Z,88.23
2023-01-03T12:39:35.808Z,87.89
2023-01-03T12:42:10.675Z,88.09
2023-01-03T12:44:41.990Z,88.10
2023-01-03T12:47:21.248Z,87.94
2023-01-03T12:49:56.769Z,87.83
2023-01-03T12:52:26.856Z,88.05
2023-01-03T12:55:00.061Z,87.79
2023-01-03T12:58:19.592Z,87.74
2023-01-03T13:00:57.155Z,87.96
2023-01-03T13:03:29.886Z,87.88
2023-01-03T13:06:05.295Z,87.87
2023-01-03T13:08:37.070Z,87.77
2023-01-03T13:11:14.393Z,87.93
2023-01-03T13:13:50.573Z,87.67
2023-01-03T13:16:43.355Z,87.72
2023-01-03T13:19:40.216Z,87.76
2023-01-03T13:22:34.148Z,87.75
2023-01-03T13:25:31.282Z,87.76
2023-01-03T13:28:00.579Z,87.91
2023-01-03T13:30:29.797Z,87.78
2023-01-03T13:33:16.832Z,87.80
2023-01-03T13:35:59.690Z,87.75
2023-01-03T13:38:31.461Z,87.65
2023-01-03T13:41:17.585Z,87.81
2023-01-03T13:43:49.721Z,87.72
2023-01-03T13:46:24.798Z,87.74
2023-01-03T13:48:58.672Z,87.71
2023-01-03T13:51:48.388Z,87.69
2023-01-03T13:54:35.812Z,87.75
2023-01-03T13:57:07.100Z,87.58
2023-01-03T13:59:42.862Z,87.50
2023-01-03T14:02:51.059Z,87.54
2023-01-03T14:06:00.338Z,87.66
2023-01-03T14:08:41.849Z,87.66
2023-01-03T14:11:35.402Z,87.49
2023-01-03T14:14:10.670Z,87.68
2023-01-03T14:16:46.646Z,87.78
2023-01-03T14:19:20.961Z,87.53
2023-01-03T14:21:52.001Z,87.59
2023-01-03T14:24:24.994Z,87.61
2023-01-03T14:26:55.250Z,87.63
2023-01-03T14:29:25.269Z,87.53
2023-01-03T14:31:56.108Z,87.30
2023-01-03T14:34:33.635Z,87.56
2023-01-03T14:37:07.071Z,87.54
2023-01-03T14:42:06.405Z,87.45
2023-01-03T14:44:35.014Z,87.41
2023-01-03T14:47:06.205Z,87.38
2023-01-03T14:49:41.561Z,87.28
2023-01-03T14:52:15.246Z,87.35
2023-01-03T14:54:46.866Z,87.30
2023-01-03T14:57:21.794Z,87.65
2023-01-03T14:59:51.293Z,87.55
2023-01-03T15:02:20.254Z,87.40
2023-01-03T15:04:52.577Z,87.47
2023-01-03T15:07:29.827Z,87.59
2023-01-03T15:10:06.136Z,87.28
2023-01-03T15:12:40.038Z,87.66
2023-01-03T15:15:16.699Z,87.38
2023-01-03T15:17:47.331Z,87.35
2023-01-03T15:20:19.807Z,87.26
2023-01-03T15:22:48.225Z,87.58
2023-01-03T15:25:20.212Z,87.18
2023-01-03T15:27:53.113Z,87.14
2023-01-03T15:30:25.141Z,87.79
2023-01-03T15:32:58.590Z,87.48
2023-01-03T15:35:33.597Z,87.47
2023-01-03T15:38:05.317Z,87.46
2023-01-03T15:40:33.951Z,87.46
2023-01-03T15:43:23.370Z,87.42
2023-01-03T15:46:01.722Z,87.44
2023-01-03T15:48:30.053Z,87.33
2023-01-03T15:50:57.990Z,87.49
2023-01-03T15:53:28.466Z,87.31
2023-01-03T15:56:00.364Z,87.29
2023-01-03T15:58:30.642Z,87.39
2023-01-03T16:00:59.852Z,87.51
2023-01-03T16:03:32.269Z,87.37
2023-01-03T16:06:00.212Z,87.34
2023-01-03T16:08:31.127Z,86.95
2023-01-03T16:11:02.450Z,87.29
2023-01-03T16:13:35.763Z,87.32
2023-01-03T16:16:04.069Z,87.28
2023-01-03T16:18:45.680Z,87.13
2023-01-03T16:21:15.029Z,87.17
2023-01-03T16:23:43.321Z,87.21
2023-01-03T16:26:11.457Z,86.99
2023-01-03T16:28:40.596Z,87.21
2023-01-03T16:31:14.380Z,87.11
2023-01-03T16:33:44.124Z,87.31
2023-01-03T16:36:25.296Z,87.22
2023-01-03T16:38:53.666Z,87.40
2023-01-03T16:41:21.578Z,87.27
2023-01-03T16:43:52.696Z,87.33
2023-01-03T16:46:22.965Z,87.54
2023-01-03T16:48:53.401Z,87.13
2023-01-03T16:51:25.058Z,87.21
2023-01-03T16:53:56.498Z,86.90
2023-01-03T16:56:24.722Z,87.33
2023-01-03T16:58:54.505Z,87.28
2023-01-03T17:01:22.909Z,87.36
2023-01-03T17:03:50.969Z,87.64
2023-01-03T17:06:37.610Z,87.16
2023-01-03T17:09:12.106Z,87.35
2023-01-03T17:11:40.251Z,87.33
2023-01-03T17:14:17.707Z,87.19
2023-01-03T17:16:47.706Z,87.25
2023-01-03T17:20:01.524Z,87.25
2023-01-03T17:22:08.059Z,87.25
2023-01-03T17:24:35.832Z,87.20
2023-01-03T17:27:04.695Z,87.13
2023-01-03T17:29:34.001Z,87.30
2023-01-03T17:32:01.811Z,87.31
2023-01-03T17:34:31.624Z,87.10
2023-01-03T17:37:01.569Z,87.19
2023-01-03T17:39:29.456Z,87.16
2023-01-03T17:42:16.828Z,87.33
2023-01-03T17:45:06.675Z,87.12
2023-01-03T17:47:57.666Z,87.07
2023-01-03T17:50:25.872Z,86.92
2023-01-03T17:52:56.057Z,87.08
2023-01-03T17:55:26.491Z,87.32
2023-01-03T17:57:55.274Z,87.27
2023-01-03T18:00:27.091Z,87.55
2023-01-03T18:02:55.679Z,87.16
2023-01-03T18:05:28.541Z,87.33
2023-01-03T18:07:58.121Z,87.48
2023-01-03T18:10:32.488Z,87.19
2023-01-03T18:13:00.839Z,87.47
2023-01-03T18:15:30.119Z,87.12
2023-01-03T18:17:57.944Z,87.18
2023-01-03T18:20:26.666Z,87.27
2023-01-03T18:22:54.762Z,87.10
2023-01-03T18:25:26.260Z,87.06
2023-01-03T18:27:57.433Z,87.32
2023-01-03T18:30:25.632Z,86.85
2023-01-03T18:32:55.030Z,86.91
2023-01-03T18:35:32.320Z,87.46
2023-01-03T18:38:02.124Z,86.99
2023-01-03T18:40:31.260Z,87.19
2023-01-03T18:43:10.354Z,87.44
2023-01-03T18:45:39.482Z,87.16
2023-01-03T18:48:16.379Z,87.23
2023-01-03T18:50:45.210Z,87.06
2023-01-03T18:53:17.480Z,87.19
2023-01-03T18:55:45.283Z,87.16
2023-01-03T18:58:24.948Z,87.21
2023-01-03T19:00:53.115Z,87.14
2023-01-03T19:03:24.680Z,87.16
2023-01-03T19:05:54.919Z,87.52
2023-01-03T19:08:25.669Z,86.98
2023-01-03T19:10:53.706Z,87.33
2023-01-03T19:13:27.215Z,87.02
2023-01-03T19:15:55.819Z,87.28
2023-01-03T19:18:26.026Z,87.48
2023-01-03T19:20:53.979Z,87.25
2023-01-03T19:23:24.903Z,87.17
2023-01-03T19:25:52.997Z,87.54
2023-01-03T19:28:25.071Z,86.94
2023-01-03T19:30:54.764Z,87.59
2023-01-03T19:33:23.816Z,87.14
2023-01-03T19:35:52.993Z,87.38
2023-01-03T19:38:21.180Z,87.24
2023-01-03T19:40:49.770Z,86.94
2023-01-03T19:43:22.253Z,87.20
2023-01-03T19:45:50.306Z,87.22
2023-01-03T19:48:19.753Z,86.81
2023-01-03T19:50:48.304Z,87.12
2023-01-03T19:53:17.523Z,87.00
2023-01-03T19:55:47.323Z,87.09
2023-01-03T19:58:18.799Z,86.96
2023-01-03T20:00:49.561Z,87.07
2023-01-03T20:03:27.453Z,87.08
2023-01-03T20:05:55.771Z,87.32
2023-01-03T20:08:24.921Z,87.17
2023-01-03T20:10:54.439Z,87.01
2023-01-03T20:13:24.246Z,87.14
2023-01-03T20:15:54.035Z,87.06
2023-01-03T20:18:28.208Z,87.11
2023-01-03T20:20:58.458Z,87.30
2023-01-03T20:23:31.878Z,87.37
2023-01-03T20:25:59.727Z,87.31
2023-01-03T20:28:29.424Z,87.37
2023-01-03T20:30:58.168Z,87.20
2023-01-03T20:33:26.735Z,87.32
2023-01-03T20:36:11.092Z,87.24
2023-01-03T20:38:45.801Z,87.34
2023-01-03T20:41:15.787Z,87.27
2023-01-03T20:43:43.734Z,87.13
2023-01-03T20:46:17.162Z,87.11
2023-01-03T20:48:45.212Z,87.41
2023-01-03T20:51:14.133Z,87.14
2023-01-03T20:53:44.989Z,87.43
2023-01-03T20:56:15.418Z,87.22
2023-01-03T20:58:43.318Z,87.09
2023-01-03T21:01:11.652Z,87.03
2023-01-03T21:03:42.418Z,87.17
2023-01-03T21:06:18.235Z,87.49
2023-01-03T21:08:56.786Z,87.16
2023-01-03T21:11:26.876Z,86.93
2023-01-03T21:13:54.955Z,87.20
2023-01-03T21:16:42.018Z,87.38
2023-01-03T21:19:14.863Z,86.95
2023-01-03T21:21:44.192Z,87.06
2023-01-03T21:24:15.377Z,87.41
2023-01-03T21:26:43.398Z,87.13
2023-01-03T21:29:11.717Z,87.32
2023-01-03T21:31:42.377Z,87.03
2023-01-03T21:34:17.845Z,87.07
2023-01-03T21:36:45.817Z,87.16
2023-01-03T21:39:15.494Z,87.15
2023-01-03T21:41:57.336Z,87.10
2023-01-03T21:44:27.075Z,87.45
2023-01-03T21:46:54.980Z,86.92
2023-01-03T21:49:22.962Z,87.57
2023-01-03T21:51:50.764Z,86.82
2023-01-03T21:54:20.095Z,86.90
2023-01-03T21:56:48.200Z,87.27
2023-01-03T21:59:17.295Z,86.84
2023-01-03T22:02:08.542Z,87.20
2023-01-03T22:04:36.401Z,87.38
2023-01-03T22:07:05.413Z,86.71
2023-01-03T22:09:52.580Z,87.29
2023-01-03T22:12:20.896Z,87.20
2023-01-03T22:14:49.005Z,86.88
2023-01-03T22:17:17.306Z,86.86
2023-01-03T22:19:45.419Z,87.36
2023-01-03T22:22:13.452Z,86.91
2023-01-03T22:24:42.657Z,87.16
2023-01-03T22:27:10.468Z,87.23
2023-01-03T22:29:38.453Z,86.94
2023-01-03T22:32:06.347Z,87.17
2023-01-03T22:34:34.170Z,86.83
2023-01-03T22:37:02.152Z,86.90
2023-01-03T22:39:29.987Z,87.12
2023-01-03T22:41:59.474Z,87.35
2023-01-03T22:44:27.399Z,87.06
2023-01-03T22:46:56.747Z,86.89
2023-01-03T22:49:24.714Z,87.17
2023-01-03T22:51:52.463Z,86.83
2023-01-03T22:54:20.505Z,87.17
2023-01-03T22:56:48.457Z,87.09
2023-01-03T22:59:17.765Z,86.73
2023-01-03T23:01:46.757Z,86.96
2023-01-03T23:04:14.808Z,87.04
2023-01-03T23:06:43.548Z,86.88
2023-01-03T23:09:11.950Z,87.51
2023-01-03T23:11:58.305Z,86.80
2023-01-03T23:14:28.433Z,86.88
2023-01-03T23:16:56.671Z,87.00
2023-01-03T23:19:26.418Z,87.46
2023-01-03T23:21:56.316Z,87.45
2023-01-03T23:24:25.337Z,87.44
2023-01-03T23:26:53.937Z,86.65
2023-01-03T23:29:22.400Z,86.97
2023-01-03T23:31:52.711Z,86.89
2023-01-03T23:34:20.660Z,87.04
2023-01-03T23:36:48.795Z,87.17
2023-01-03T23:39:18.593Z,86.96
2023-01-03T23:41:46.786Z,86.99
2023-01-03T23:44:14.684Z,86.88
2023-01-03T23:46:42.647Z,87.41
2023-01-03T23:49:13.462Z,87.13
2023-01-03T23:51:41.506Z,87.17
2023-01-03T23:54:10.361Z,86.88
2023-01-03T23:56:38.835Z,87.08
2023-01-03T23:59:06.666Z,86.93
